createdAt,value
2018-09-14T00:02:23.515Z,23.50
2018-09-14T00:04:52.121Z,22.90
2018-09-14T00:07:20.734Z,21.60
2018-09-14T00:09:49.331Z,21.50
2018-09-14T00:12:17.951Z,21.03
2018-09-14T00:14:46.543Z,24.63
2018-09-14T00:17:15.163Z,22.70
2018-09-14T00:19:43.775Z,20.63
2018-09-14T00:22:12.389Z,18.60
2018-09-14T00:24:40.991Z,22.47
2018-09-14T00:27:09.599Z,23.57
2018-09-14T00:29:38.205Z,21.10
2018-09-14T00:32:07.071Z,22.23
2018-09-14T00:34:35.666Z,23.10
2018-09-14T00:37:04.768Z,26.17
2018-09-14T00:39:33.384Z,22.73
2018-09-14T00:42:02.116Z,21.37
2018-09-14T00:44:30.731Z,21.80
2018-09-14T00:46:59.339Z,20.47
2018-09-14T00:49:27.947Z,20.43
2018-09-14T00:51:56.576Z,20.80
2018-09-14T00:54:25.190Z,24.47
2018-09-14T00:56:53.803Z,21.50
2018-09-14T00:59:22.526Z,20.03
2018-09-14T01:01:51.118Z,20.20
2018-09-14T01:04:19.720Z,21.27
2018-09-14T01:06:48.323Z,19.50
2018-09-14T01:09:22.275Z,20.87
2018-09-14T01:11:50.884Z,19.57
2018-09-14T01:14:19.482Z,19.83
2018-09-14T01:16:48.088Z,19.70
2018-09-14T01:19:16.693Z,20.47
2018-09-14T01:21:45.293Z,19.10
2018-09-14T01:24:13.904Z,18.17
2018-09-14T01:26:42.504Z,19.80
2018-09-14T01:29:11.124Z,19.03
2018-09-14T01:31:39.740Z,19.23
2018-09-14T01:34:08.348Z,18.93
2018-09-14T01:36:36.968Z,20.13
2018-09-14T01:39:08.431Z,21.57
2018-09-14T01:41:37.090Z,20.20
2018-09-14T01:44:05.988Z,24.63
2018-09-14T01:46:34.583Z,24.23
2018-09-14T01:49:03.188Z,20.23
2018-09-14T01:51:31.787Z,18.70
2018-09-14T01:54:00.430Z,19.27
2018-09-14T01:56:29.023Z,19.30
2018-09-14T01:58:57.649Z,22.63
2018-09-14T02:01:26.271Z,21.07
2018-09-14T02:03:54.888Z,21.80
2018-09-14T02:06:24.167Z,20.47
2018-09-14T02:08:52.775Z,18.70
2018-09-14T02:11:21.371Z,19.37
2018-09-14T02:13:50.040Z,19.83
2018-09-14T02:16:18.649Z,24.27
2018-09-14T02:18:47.259Z,18.03
2018-09-14T02:21:15.955Z,17.57
2018-09-14T02:23:44.563Z,16.97
2018-09-14T02:26:13.171Z,16.60
2018-09-14T02:28:41.784Z,18.07
2018-09-14T02:31:10.387Z,17.87
2018-09-14T02:33:38.984Z,18.80
2018-09-14T02:36:07.602Z,16.90
2018-09-14T02:38:36.232Z,19.00
2018-09-14T02:41:04.955Z,18.27
2018-09-14T02:43:33.623Z,19.07
2018-09-14T02:46:02.234Z,19.00
2018-09-14T02:48:30.818Z,17.53
2018-09-14T02:50:59.426Z,16.60
2018-09-14T02:53:28.035Z,18.57
2018-09-14T02:55:56.643Z,17.33
2018-09-14T02:58:25.243Z,17.27
2018-09-14T03:00:53.848Z,17.50
2018-09-14T03:03:22.429Z,16.53
2018-09-14T03:05:51.023Z,16.43
2018-09-14T03:08:19.627Z,17.30
2018-09-14T03:10:48.231Z,16.47
2018-09-14T03:13:16.832Z,18.33
2018-09-14T03:15:45.427Z,16.53
2018-09-14T03:18:14.021Z,15.00
2018-09-14T03:20:42.616Z,16.57
2018-09-14T03:23:11.224Z,16.40
2018-09-14T03:25:39.819Z,19.00
2018-09-14T03:28:08.420Z,19.90
2018-09-14T03:30:37.030Z,16.10
2018-09-14T03:33:05.768Z,16.10
2018-09-14T03:35:34.363Z,17.37
2018-09-14T03:38:02.963Z,16.10
2018-09-14T03:40:31.556Z,16.53
2018-09-14T03:43:00.151Z,18.43
2018-09-14T03:45:28.747Z,18.40
2018-09-14T03:47:57.332Z,19.57
2018-09-14T03:50:25.939Z,18.87
2018-09-14T03:52:54.639Z,18.63
2018-09-14T03:55:23.328Z,18.37
2018-09-14T03:57:51.911Z,16.50
2018-09-14T04:00:20.507Z,19.10
2018-09-14T04:02:49.111Z,17.97
2018-09-14T04:05:17.719Z,20.40
2018-09-14T04:07:46.348Z,17.63
2018-09-14T04:10:14.903Z,19.30
2018-09-14T04:12:43.500Z,22.60
2018-09-14T04:15:12.107Z,18.80
2018-09-14T04:17:40.725Z,20.90
2018-09-14T04:20:09.319Z,19.33
2018-09-14T04:22:37.925Z,17.77
2018-09-14T04:25:06.524Z,19.03
2018-09-14T04:27:35.156Z,23.80
2018-09-14T04:30:03.769Z,21.00
2018-09-14T04:32:32.367Z,20.17
2018-09-14T04:35:00.968Z,19.17
2018-09-14T04:37:29.570Z,16.73
2018-09-14T04:39:58.171Z,18.43
2018-09-14T04:42:26.789Z,18.87
2018-09-14T04:44:55.407Z,20.47
2018-09-14T04:47:24.015Z,17.43
2018-09-14T04:49:52.615Z,19.40
2018-09-14T04:52:21.221Z,18.70
2018-09-14T04:54:49.965Z,16.67
2018-09-14T04:57:18.587Z,16.60
2018-09-14T04:59:47.160Z,21.70
2018-09-14T05:02:15.804Z,19.40
2018-09-14T05:04:44.484Z,18.90
2018-09-14T05:07:13.721Z,20.87
2018-09-14T05:09:44.766Z,20.27
2018-09-14T05:12:13.500Z,18.30
2018-09-14T05:14:42.548Z,18.50
2018-09-14T05:17:11.135Z,18.40
2018-09-14T05:19:39.760Z,18.87
2018-09-14T05:22:08.391Z,16.70
2018-09-14T05:24:37.151Z,16.40
2018-09-14T05:27:05.673Z,16.17
2018-09-14T05:29:34.281Z,18.27
2018-09-14T05:32:02.879Z,17.53
2018-09-14T05:34:31.480Z,16.30
2018-09-14T05:37:00.087Z,14.57
2018-09-14T05:39:28.682Z,15.70
2018-09-14T05:41:57.287Z,17.20
2018-09-14T05:44:25.891Z,18.10
2018-09-14T05:46:54.492Z,18.40
2018-09-14T05:49:23.104Z,18.23
2018-09-14T05:51:51.911Z,19.50
2018-09-14T05:54:20.565Z,18.77
2018-09-14T05:56:49.116Z,22.03
2018-09-14T05:59:17.723Z,17.40
2018-09-14T06:01:46.388Z,17.70
2018-09-14T06:04:14.999Z,17.23
2018-09-14T06:06:43.702Z,17.17
2018-09-14T06:09:13.143Z,17.90
2018-09-14T06:11:42.360Z,16.47
2018-09-14T06:14:10.973Z,18.10
2018-09-14T06:16:40.071Z,16.57
2018-09-14T06:19:08.708Z,16.13
2018-09-14T06:21:37.312Z,19.40
2018-09-14T06:24:05.956Z,15.83
2018-09-14T06:26:34.569Z,16.77
2018-09-14T06:29:03.171Z,16.77
2018-09-14T06:31:31.782Z,15.93
2018-09-14T06:34:00.388Z,15.93
2018-09-14T06:36:28.996Z,16.80
2018-09-14T06:38:57.600Z,15.20
2018-09-14T06:41:26.207Z,17.67
2018-09-14T06:43:54.802Z,16.20
2018-09-14T06:46:23.423Z,16.63
2018-09-14T06:48:52.032Z,17.43
2018-09-14T06:51:20.635Z,17.67
2018-09-14T06:53:49.224Z,18.27
2018-09-14T06:56:17.842Z,17.10
2018-09-14T06:58:46.436Z,17.43
2018-09-14T07:01:15.048Z,17.73
2018-09-14T07:03:43.680Z,18.30
2018-09-14T07:06:12.292Z,18.80
2018-09-14T07:08:40.926Z,18.60
2018-09-14T07:11:09.531Z,19.27
2018-09-14T07:13:38.131Z,20.87
2018-09-14T07:16:06.743Z,19.00
2018-09-14T07:18:35.360Z,19.77
2018-09-14T07:21:03.959Z,19.47
2018-09-14T07:23:32.575Z,20.73
2018-09-14T07:26:01.196Z,20.53
2018-09-14T07:28:29.772Z,21.13
2018-09-14T07:30:58.392Z,21.17
2018-09-14T07:33:26.995Z,22.17
2018-09-14T07:35:55.595Z,20.83
2018-09-14T07:38:24.220Z,20.40
2018-09-14T07:40:52.832Z,21.50
2018-09-14T07:43:21.456Z,27.50
2018-09-14T07:45:50.167Z,27.80
2018-09-14T07:48:18.796Z,28.30
2018-09-14T07:50:47.388Z,27.70
2018-09-14T07:53:16.004Z,30.93
2018-09-14T07:55:44.619Z,29.67
2018-09-14T07:58:13.250Z,28.57
2018-09-14T08:00:41.888Z,27.10
2018-09-14T08:03:10.504Z,26.47
2018-09-14T08:05:39.120Z,31.43
2018-09-14T08:08:07.748Z,26.70
2018-09-14T08:10:36.400Z,27.47
2018-09-14T08:13:05.107Z,26.93
2018-09-14T08:15:33.727Z,27.57
2018-09-14T08:18:02.367Z,29.60
2018-09-14T08:20:31.477Z,31.70
2018-09-14T08:23:00.134Z,34.80
2018-09-14T08:25:28.757Z,31.00
2018-09-14T08:27:57.371Z,28.60
2018-09-14T08:30:26.032Z,29.43
2018-09-14T08:32:54.947Z,29.00
2018-09-14T08:35:23.579Z,29.23
2018-09-14T08:37:52.200Z,27.70
2018-09-14T08:40:20.825Z,29.43
2018-09-14T08:42:49.434Z,29.90
2018-09-14T08:45:18.051Z,30.80
2018-09-14T08:47:46.686Z,26.13
2018-09-14T08:50:15.283Z,26.43
2018-09-14T08:52:43.899Z,26.70
2018-09-14T08:55:12.531Z,24.97
2018-09-14T08:57:41.135Z,25.33
2018-09-14T09:00:09.762Z,25.07
2018-09-14T09:02:38.360Z,24.73
2018-09-14T09:05:07.037Z,24.30
2018-09-14T09:07:35.643Z,26.63
2018-09-14T09:10:04.312Z,25.43
2018-09-14T09:12:32.939Z,23.20
2018-09-14T09:15:01.556Z,24.33
2018-09-14T09:17:30.185Z,24.53
2018-09-14T09:19:58.882Z,25.90
2018-09-14T09:22:27.549Z,25.97
2018-09-14T09:24:56.191Z,27.30
2018-09-14T09:27:24.807Z,27.90
2018-09-14T09:29:53.431Z,24.80
2018-09-14T09:32:22.059Z,28.07
2018-09-14T09:34:50.683Z,26.00
2018-09-14T09:37:19.399Z,22.97
2018-09-14T09:39:48.037Z,25.57
2018-09-14T09:42:16.649Z,24.90
2018-09-14T09:44:45.274Z,22.67
2018-09-14T09:47:13.902Z,21.50
2018-09-14T09:49:42.534Z,25.33
2018-09-14T09:52:11.172Z,32.03
2018-09-14T09:54:39.793Z,21.93
2018-09-14T09:57:08.419Z,18.93
2018-09-14T09:59:41.644Z,21.63
2018-09-14T10:03:14.290Z,20.90
2018-09-14T10:05:48.284Z,23.77
2018-09-14T10:08:17.258Z,24.20
2018-09-14T10:10:48.672Z,21.80
2018-09-14T10:13:17.619Z,20.40
2018-09-14T10:15:46.264Z,21.07
2018-09-14T10:18:14.898Z,20.00
2018-09-14T10:20:43.591Z,18.43
2018-09-14T10:23:12.182Z,17.63
2018-09-14T10:25:40.803Z,21.77
2018-09-14T10:28:09.428Z,14.13
2018-09-14T10:30:38.039Z,17.33
2018-09-14T10:33:06.663Z,15.07
2018-09-14T10:35:35.282Z,16.40
2018-09-14T10:38:04.024Z,14.40
2018-09-14T10:40:32.730Z,15.83
2018-09-14T10:43:01.300Z,17.07
2018-09-14T10:45:29.907Z,15.37
2018-09-14T10:47:58.910Z,16.17
2018-09-14T10:50:34.566Z,13.83
2018-09-14T10:53:03.479Z,14.63
2018-09-14T10:55:32.299Z,13.70
2018-09-14T10:58:00.904Z,14.37
2018-09-14T11:00:29.537Z,15.17
2018-09-14T11:02:58.164Z,14.97
2018-09-14T11:05:28.353Z,14.43
2018-09-14T11:07:57.895Z,13.07
2018-09-14T11:10:33.876Z,12.80
2018-09-14T11:13:07.332Z,12.13
2018-09-14T11:15:36.133Z,13.10
2018-09-14T11:18:04.886Z,12.77
2018-09-14T11:20:33.649Z,12.00
2018-09-14T11:23:02.255Z,18.10
2018-09-14T11:25:30.913Z,13.80
2018-09-14T11:27:59.607Z,13.80
2018-09-14T11:30:28.307Z,13.70
2018-09-14T11:32:57.115Z,17.10
2018-09-14T11:35:25.748Z,15.73
2018-09-14T11:37:54.879Z,16.77
2018-09-14T11:40:23.488Z,20.63
2018-09-14T11:42:52.685Z,21.63
2018-09-14T11:45:21.384Z,20.33
2018-09-14T11:47:49.959Z,19.70
2018-09-14T11:50:18.591Z,19.10
2018-09-14T11:52:47.221Z,20.27
2018-09-14T11:55:15.860Z,17.00
2018-09-14T11:57:44.482Z,17.73
2018-09-14T12:00:13.179Z,16.67
2018-09-14T12:02:41.892Z,16.00
2018-09-14T12:05:10.532Z,14.77
2018-09-14T12:07:39.616Z,17.55
2018-09-14T12:10:09.100Z,16.60
2018-09-14T12:12:37.748Z,14.98
2018-09-14T12:15:06.398Z,16.23
2018-09-14T12:17:35.029Z,16.35
2018-09-14T12:20:03.633Z,15.00
2018-09-14T12:22:35.028Z,14.60
2018-09-14T12:25:11.377Z,14.40
2018-09-14T12:27:43.149Z,13.62
2018-09-14T12:30:11.784Z,10.45
2018-09-14T12:32:40.386Z,10.05
2018-09-14T12:35:09.000Z,9.25
2018-09-14T12:37:37.617Z,10.88
2018-09-14T12:40:07.407Z,12.43
2018-09-14T12:42:36.023Z,10.23
2018-09-14T12:45:04.700Z,13.10
2018-09-14T12:47:33.309Z,10.60
2018-09-14T12:50:01.987Z,11.78
2018-09-14T12:52:30.739Z,10.10
2018-09-14T12:54:59.343Z,9.53
2018-09-14T12:57:27.989Z,10.53
2018-09-14T12:59:56.599Z,9.95
2018-09-14T13:02:25.243Z,10.85
2018-09-14T13:04:53.852Z,11.12
2018-09-14T13:07:22.744Z,10.98
2018-09-14T13:09:51.356Z,11.30
2018-09-14T13:12:19.983Z,10.67
2018-09-14T13:14:48.583Z,10.70
2018-09-14T13:17:17.216Z,10.13
2018-09-14T13:19:45.848Z,12.23
2018-09-14T13:22:14.488Z,10.72
2018-09-14T13:24:43.547Z,10.15
2018-09-14T13:27:12.212Z,11.23
2018-09-14T13:29:40.835Z,12.03
2018-09-14T13:32:09.439Z,10.10
2018-09-14T13:34:38.071Z,9.93
2018-09-14T13:37:06.391Z,14.17
2018-09-14T13:39:35.012Z,8.10
2018-09-14T13:42:03.628Z,10.03
2018-09-14T13:44:32.257Z,11.13
2018-09-14T13:47:00.893Z,10.05
2018-09-14T13:49:29.512Z,10.38
2018-09-14T13:51:58.116Z,8.83
2018-09-14T13:54:26.736Z,9.43
2018-09-14T13:56:55.367Z,8.80
2018-09-14T13:59:23.988Z,10.63
2018-09-14T14:01:52.612Z,12.23
2018-09-14T14:04:21.658Z,10.33
2018-09-14T14:06:50.264Z,10.77
2018-09-14T14:09:18.883Z,10.60
2018-09-14T14:11:47.507Z,12.30
2018-09-14T14:14:16.128Z,11.70
2018-09-14T14:16:44.800Z,13.10
2018-09-14T14:19:13.395Z,12.70
2018-09-14T14:21:42.020Z,11.70
2018-09-14T14:24:10.660Z,9.93
2018-09-14T14:26:40.205Z,9.80
2018-09-14T14:29:08.827Z,9.40
2018-09-14T14:31:37.443Z,8.40
2018-09-14T14:34:06.550Z,7.27
2018-09-14T14:36:35.161Z,8.50
2018-09-14T14:39:04.738Z,8.87
2018-09-14T14:44:08.736Z,8.90
2018-09-14T14:46:37.295Z,8.63
2018-09-14T14:49:05.915Z,7.90
2018-09-14T14:51:34.553Z,8.60
2018-09-14T14:54:03.154Z,10.60
2018-09-14T14:56:31.787Z,10.63
2018-09-14T14:59:00.429Z,11.00
2018-09-14T15:01:29.051Z,8.37
2018-09-14T15:03:57.655Z,10.10
2018-09-14T15:06:26.296Z,10.83
2018-09-14T15:08:54.895Z,9.57
2018-09-14T15:11:23.528Z,9.00
2018-09-14T15:13:52.138Z,10.43
2018-09-14T15:16:20.746Z,10.17
2018-09-14T15:18:49.353Z,11.30
2018-09-14T15:21:18.104Z,9.40
2018-09-14T15:23:46.675Z,9.87
2018-09-14T15:26:15.294Z,9.90
2018-09-14T15:28:43.923Z,8.67
2018-09-14T15:31:12.561Z,7.73
2018-09-14T15:33:41.164Z,7.70
2018-09-14T15:36:09.768Z,8.70
2018-09-14T15:38:38.400Z,8.07
2018-09-14T15:41:07.029Z,8.57
2018-09-14T15:43:35.673Z,8.77
2018-09-14T15:46:04.243Z,7.70
2018-09-14T15:48:33.839Z,8.00
2018-09-14T15:51:02.441Z,10.27
2018-09-14T15:53:31.108Z,13.40
2018-09-14T15:55:59.712Z,11.27
2018-09-14T15:58:28.332Z,10.37
2018-09-14T16:00:56.956Z,12.90
2018-09-14T16:03:25.610Z,11.57
2018-09-14T16:05:54.211Z,7.63
2018-09-14T16:08:22.837Z,8.43
2018-09-14T16:10:51.476Z,8.90
2018-09-14T16:13:20.133Z,10.17
2018-09-14T16:15:48.707Z,11.97
2018-09-14T16:18:17.332Z,8.20
2018-09-14T16:20:46.010Z,10.30
2018-09-14T16:23:14.731Z,7.47
2018-09-14T16:25:43.322Z,7.90
2018-09-14T16:28:11.986Z,7.07
2018-09-14T16:30:40.587Z,7.37
2018-09-14T16:33:09.305Z,6.60
2018-09-14T16:35:37.907Z,10.97
2018-09-14T16:38:06.540Z,9.87
2018-09-14T16:40:35.133Z,7.10
2018-09-14T16:43:03.732Z,7.20
2018-09-14T16:45:32.387Z,8.63
2018-09-14T16:48:01.004Z,7.20
2018-09-14T16:50:29.652Z,7.50
2018-09-14T16:52:58.223Z,14.83
2018-09-14T16:55:26.907Z,9.83
2018-09-14T16:57:55.513Z,11.10
2018-09-14T17:00:24.143Z,10.57
2018-09-14T17:02:52.760Z,10.23
2018-09-14T17:05:21.376Z,14.73
2018-09-14T17:07:50.006Z,9.43
2018-09-14T17:10:18.610Z,10.07
2018-09-14T17:12:47.228Z,11.60
2018-09-14T17:15:15.854Z,11.53
2018-09-14T17:17:44.459Z,10.97
2018-09-14T17:20:13.087Z,12.83
2018-09-14T17:22:41.705Z,11.53
2018-09-14T17:25:10.330Z,10.47
2018-09-14T17:27:38.968Z,8.40
2018-09-14T17:30:07.591Z,17.23
2018-09-14T17:32:36.205Z,14.43
2018-09-14T17:35:04.823Z,11.30
2018-09-14T17:37:33.444Z,10.50
2018-09-14T17:40:02.061Z,12.20
2018-09-14T17:42:30.675Z,12.03
2018-09-14T17:44:59.291Z,9.93
2018-09-14T17:47:27.904Z,10.53
2018-09-14T17:49:56.543Z,10.60
2018-09-14T17:52:25.170Z,9.37
2018-09-14T17:54:53.779Z,11.87
2018-09-14T17:57:22.400Z,12.13
2018-09-14T17:59:51.023Z,11.93
2018-09-14T18:02:19.656Z,12.27
2018-09-14T18:04:48.286Z,13.10
2018-09-14T18:07:16.927Z,14.30
2018-09-14T18:09:45.549Z,14.73
2018-09-14T18:12:14.174Z,15.00
2018-09-14T18:14:42.799Z,11.80
2018-09-14T18:17:11.427Z,9.20
2018-09-14T18:19:40.208Z,13.00
2018-09-14T18:22:08.891Z,10.00
2018-09-14T18:24:37.483Z,10.33
2018-09-14T18:27:06.124Z,8.53
2018-09-14T18:29:34.735Z,11.40
2018-09-14T18:32:03.360Z,8.20
2018-09-14T18:34:33.019Z,13.90
2018-09-14T18:37:01.777Z,10.90
2018-09-14T18:39:30.392Z,11.97
2018-09-14T18:41:59.006Z,8.23
2018-09-14T18:44:27.635Z,10.43
2018-09-14T18:46:56.337Z,13.50
2018-09-14T18:49:24.894Z,12.00
2018-09-14T18:51:53.848Z,12.97
2018-09-14T18:54:22.516Z,12.93
2018-09-14T18:56:51.147Z,15.50
2018-09-14T18:59:19.795Z,14.70
2018-09-14T19:01:48.485Z,10.67
2018-09-14T19:04:17.099Z,11.20
2018-09-14T19:06:45.704Z,9.50
2018-09-14T19:09:14.320Z,12.17
2018-09-14T19:11:42.964Z,17.40
2018-09-14T19:14:11.637Z,14.30
2018-09-14T19:16:40.289Z,14.67
2018-09-14T19:19:08.941Z,12.20
2018-09-14T19:21:37.516Z,10.37
2018-09-14T19:24:06.167Z,10.27
2018-09-14T19:26:34.772Z,10.53
2018-09-14T19:29:03.439Z,11.50
2018-09-14T19:31:32.099Z,13.93
2018-09-14T19:34:00.773Z,16.57
2018-09-14T19:36:29.407Z,13.33
2018-09-14T19:38:58.019Z,14.63
2018-09-14T19:41:26.649Z,16.53
2018-09-14T19:43:55.295Z,15.20
2018-09-14T19:46:23.951Z,15.73
2018-09-14T19:48:52.647Z,16.60
2018-09-14T19:51:21.290Z,15.37
2018-09-14T19:53:49.980Z,15.20
2018-09-14T19:56:18.595Z,14.17
2018-09-14T19:58:47.387Z,13.93
2018-09-14T20:01:16.027Z,16.40
2018-09-14T20:03:44.947Z,15.83
2018-09-14T20:06:13.604Z,15.80
2018-09-14T20:08:42.191Z,15.60
2018-09-14T20:11:10.804Z,17.50
2018-09-14T20:13:39.480Z,13.87
2018-09-14T20:16:08.169Z,15.03
2018-09-14T20:18:38.581Z,12.00
2018-09-14T20:21:07.148Z,13.87
2018-09-14T20:23:35.824Z,11.40
2018-09-14T20:26:04.459Z,13.33
2018-09-14T20:28:33.059Z,12.23
2018-09-14T20:31:01.680Z,11.93
2018-09-14T20:33:30.307Z,11.50
2018-09-14T20:35:58.949Z,20.40
2018-09-14T20:38:27.551Z,12.07
2018-09-14T20:40:56.184Z,15.60
2018-09-14T20:43:24.815Z,13.07
2018-09-14T20:45:53.446Z,13.67
2018-09-14T20:48:22.088Z,16.93
2018-09-14T20:50:50.712Z,12.60
2018-09-14T20:53:19.331Z,11.60
2018-09-14T20:55:47.956Z,12.77
2018-09-14T20:58:16.670Z,12.87
2018-09-14T21:00:45.251Z,12.33
2018-09-14T21:03:13.877Z,10.43
2018-09-14T21:05:42.491Z,10.60
2018-09-14T21:08:11.144Z,11.33
2018-09-14T21:10:39.776Z,13.30
2018-09-14T21:13:08.414Z,12.40
2018-09-14T21:15:37.028Z,12.10
2018-09-14T21:18:06.469Z,12.30
2018-09-14T21:20:35.092Z,12.33
2018-09-14T21:23:03.719Z,12.90
2018-09-14T21:25:32.347Z,13.00
2018-09-14T21:28:00.971Z,12.83
2018-09-14T21:30:29.605Z,14.70
2018-09-14T21:32:58.240Z,13.10
2018-09-14T21:35:26.859Z,13.60
2018-09-14T21:37:55.484Z,12.20
2018-09-14T21:40:24.139Z,11.33
2018-09-14T21:42:52.753Z,11.00
2018-09-14T21:45:21.401Z,12.50
2018-09-14T21:47:50.028Z,12.17
2018-09-14T21:50:18.663Z,14.10
2018-09-14T21:52:47.299Z,13.17
2018-09-14T21:55:15.930Z,15.77
2018-09-14T21:57:44.582Z,13.03
2018-09-14T22:00:18.604Z,12.40
2018-09-14T22:02:47.239Z,14.13
2018-09-14T22:05:15.859Z,13.60
2018-09-14T22:07:44.508Z,12.70
2018-09-14T22:10:13.136Z,12.43
2018-09-14T22:12:41.779Z,13.20
2018-09-14T22:15:10.397Z,14.70
2018-09-14T22:17:39.031Z,13.37
2018-09-14T22:20:07.880Z,13.27
2018-09-14T22:22:36.504Z,14.13
2018-09-14T22:25:05.140Z,12.33
2018-09-14T22:27:33.767Z,12.10
2018-09-14T22:30:02.406Z,16.17
2018-09-14T22:32:31.014Z,12.47
2018-09-14T22:34:59.639Z,15.50
2018-09-14T22:37:28.261Z,16.20
2018-09-14T22:39:56.884Z,13.93
2018-09-14T22:42:25.526Z,14.23
2018-09-14T22:44:54.184Z,15.00
2018-09-14T22:47:22.795Z,12.30
2018-09-14T22:49:51.407Z,17.00
2018-09-14T22:52:20.031Z,13.93
2018-09-14T22:54:48.657Z,17.93
2018-09-14T22:57:17.353Z,17.87
2018-09-14T22:59:45.972Z,13.53
2018-09-14T23:02:14.579Z,13.30
2018-09-14T23:04:43.244Z,14.57
2018-09-14T23:07:11.868Z,16.47
2018-09-14T23:09:40.484Z,13.27
2018-09-14T23:12:09.100Z,13.33
2018-09-14T23:14:37.728Z,14.00
2018-09-14T23:17:06.568Z,11.93
2018-09-14T23:19:35.203Z,15.30
2018-09-14T23:22:03.815Z,13.67
2018-09-14T23:24:32.435Z,16.60
2018-09-14T23:27:01.047Z,12.53
2018-09-14T23:29:29.667Z,17.63
2018-09-14T23:31:58.320Z,13.30
2018-09-14T23:34:26.960Z,13.53
2018-09-14T23:36:55.572Z,14.40
2018-09-14T23:39:24.195Z,17.00
2018-09-14T23:41:52.822Z,13.20
2018-09-14T23:44:21.434Z,14.00
2018-09-14T23:46:50.053Z,13.80
2018-09-14T23:49:18.663Z,15.50
2018-09-14T23:51:47.349Z,14.43
2018-09-14T23:54:15.968Z,13.83
2018-09-14T23:56:44.587Z,16.33
2018-09-14T23:59:13.265Z,14.00
